sensor_id;sensor_type;location;lat;lon;timestamp;P1;durP1;ratioP1;P2;durP2;ratioP2
76113;SDS011;64845;53.086;5.834;2023-07-24T00:01:51;14.35;;;5.10;;
76113;SDS011;64845;53.086;5.834;2023-07-24T00:04:16;9.70;;;4.82;;
76113;SDS011;64845;53.086;5.834;2023-07-24T00:06:42;19.27;;;5.80;;
76113;SDS011;64845;53.086;5.834;2023-07-24T00:09:07;13.25;;;5.55;;
76113;SDS011;64845;53.086;5.834;2023-07-24T00:11:33;14.73;;;5.13;;
76113;SDS011;64845;53.086;5.834;2023-07-24T00:13:58;16.60;;;5.00;;
76113;SDS011;64845;53.086;5.834;2023-07-24T00:16:23;15.73;;;5.45;;
76113;SDS011;64845;53.086;5.834;2023-07-24T00:18:49;13.93;;;5.63;;
76113;SDS011;64845;53.086;5.834;2023-07-24T00:21:14;22.33;;;6.55;;
76113;SDS011;64845;53.086;5.834;2023-07-24T00:23:39;13.68;;;5.38;;
76113;SDS011;64845;53.086;5.834;2023-07-24T00:26:05;16.85;;;5.90;;
76113;SDS011;64845;53.086;5.834;2023-07-24T00:28:30;16.17;;;6.10;;
76113;SDS011;64845;53.086;5.834;2023-07-24T00:30:56;17.42;;;6.63;;
76113;SDS011;64845;53.086;5.834;2023-07-24T00:33:21;17.48;;;6.07;;
76113;SDS011;64845;53.086;5.834;2023-07-24T00:35:47;17.58;;;6.10;;
76113;SDS011;64845;53.086;5.834;2023-07-24T00:38:12;16.90;;;6.10;;
76113;SDS011;64845;53.086;5.834;2023-07-24T00:40:38;13.48;;;6.00;;
76113;SDS011;64845;53.086;5.834;2023-07-24T00:43:03;14.00;;;5.70;;
76113;SDS011;64845;53.086;5.834;2023-07-24T00:45:28;24.55;;;6.60;;
76113;SDS011;64845;53.086;5.834;2023-07-24T00:47:54;14.18;;;6.45;;
76113;SDS011;64845;53.086;5.834;2023-07-24T00:50:20;14.38;;;6.57;;
76113;SDS011;64845;53.086;5.834;2023-07-24T00:52:46;18.00;;;6.03;;
76113;SDS011;64845;53.086;5.834;2023-07-24T00:55:12;13.82;;;6.05;;
76113;SDS011;64845;53.086;5.834;2023-07-24T00:57:41;20.33;;;6.40;;
76113;SDS011;64845;53.086;5.834;2023-07-24T01:00:07;17.50;;;6.72;;
76113;SDS011;64845;53.086;5.834;2023-07-24T01:02:33;18.13;;;6.82;;
76113;SDS011;64845;53.086;5.834;2023-07-24T01:04:59;12.10;;;5.60;;
76113;SDS011;64845;53.086;5.834;2023-07-24T01:07:26;17.85;;;6.50;;
76113;SDS011;64845;53.086;5.834;2023-07-24T01:09:51;20.15;;;6.95;;
76113;SDS011;64845;53.086;5.834;2023-07-24T01:12:19;16.73;;;6.05;;
76113;SDS011;64845;53.086;5.834;2023-07-24T01:15:06;21.30;;;7.32;;
76113;SDS011;64845;53.086;5.834;2023-07-24T01:17:48;17.33;;;6.82;;
76113;SDS011;64845;53.086;5.834;2023-07-24T01:20:18;15.43;;;6.47;;
76113;SDS011;64845;53.086;5.834;2023-07-24T01:25:35;16.05;;;6.82;;
76113;SDS011;64845;53.086;5.834;2023-07-24T01:28:06;17.00;;;6.72;;
76113;SDS011;64845;53.086;5.834;2023-07-24T01:32:58;12.15;;;6.28;;
76113;SDS011;64845;53.086;5.834;2023-07-24T01:35:23;15.98;;;7.10;;
76113;SDS011;64845;53.086;5.834;2023-07-24T01:37:51;17.75;;;8.00;;
76113;SDS011;64845;53.086;5.834;2023-07-24T01:40:17;15.55;;;6.72;;
76113;SDS011;64845;53.086;5.834;2023-07-24T01:42:44;15.85;;;7.05;;
76113;SDS011;64845;53.086;5.834;2023-07-24T01:45:09;16.08;;;7.68;;
76113;SDS011;64845;53.086;5.834;2023-07-24T01:47:36;18.15;;;8.07;;
76113;SDS011;64845;53.086;5.834;2023-07-24T01:50:01;16.27;;;7.00;;
76113;SDS011;64845;53.086;5.834;2023-07-24T01:52:27;21.40;;;7.82;;
76113;SDS011;64845;53.086;5.834;2023-07-24T01:54:52;21.77;;;7.78;;
76113;SDS011;64845;53.086;5.834;2023-07-24T01:57:18;17.92;;;8.13;;
76113;SDS011;64845;53.086;5.834;2023-07-24T01:59:43;15.88;;;7.32;;
76113;SDS011;64845;53.086;5.834;2023-07-24T02:02:09;20.80;;;8.25;;
76113;SDS011;64845;53.086;5.834;2023-07-24T02:04:35;15.20;;;7.60;;
76113;SDS011;64845;53.086;5.834;2023-07-24T02:07:00;18.48;;;7.38;;
76113;SDS011;64845;53.086;5.834;2023-07-24T02:09:26;17.92;;;7.38;;
76113;SDS011;64845;53.086;5.834;2023-07-24T02:11:51;18.95;;;6.95;;
76113;SDS011;64845;53.086;5.834;2023-07-24T02:14:17;11.60;;;6.47;;
76113;SDS011;64845;53.086;5.834;2023-07-24T02:16:43;12.48;;;6.93;;
76113;SDS011;64845;53.086;5.834;2023-07-24T02:19:08;18.38;;;7.60;;
76113;SDS011;64845;53.086;5.834;2023-07-24T02:21:33;15.63;;;6.82;;
76113;SDS011;64845;53.086;5.834;2023-07-24T02:23:59;21.35;;;7.80;;
76113;SDS011;64845;53.086;5.834;2023-07-24T02:26:24;21.42;;;7.10;;
76113;SDS011;64845;53.086;5.834;2023-07-24T02:28:50;18.15;;;7.32;;
76113;SDS011;64845;53.086;5.834;2023-07-24T02:31:15;21.73;;;7.05;;
76113;SDS011;64845;53.086;5.834;2023-07-24T02:33:41;19.88;;;7.63;;
76113;SDS011;64845;53.086;5.834;2023-07-24T02:36:06;17.08;;;6.53;;
76113;SDS011;64845;53.086;5.834;2023-07-24T02:38:32;21.45;;;6.88;;
76113;SDS011;64845;53.086;5.834;2023-07-24T02:40:57;19.42;;;6.45;;
76113;SDS011;64845;53.086;5.834;2023-07-24T02:43:22;16.15;;;6.30;;
76113;SDS011;64845;53.086;5.834;2023-07-24T02:45:48;13.82;;;5.75;;
76113;SDS011;64845;53.086;5.834;2023-07-24T02:48:13;17.63;;;5.40;;
76113;SDS011;64845;53.086;5.834;2023-07-24T02:50:39;14.52;;;6.28;;
76113;SDS011;64845;53.086;5.834;2023-07-24T02:53:04;16.60;;;5.57;;
76113;SDS011;64845;53.086;5.834;2023-07-24T02:55:29;14.13;;;5.63;;
76113;SDS011;64845;53.086;5.834;2023-07-24T02:57:55;15.35;;;5.78;;
76113;SDS011;64845;53.086;5.834;2023-07-24T03:00:20;16.48;;;6.03;;
76113;SDS011;64845;53.086;5.834;2023-07-24T03:02:46;14.38;;;5.78;;
76113;SDS011;64845;53.086;5.834;2023-07-24T03:05:11;18.27;;;5.38;;
76113;SDS011;64845;53.086;5.834;2023-07-24T03:07:36;17.73;;;5.15;;
76113;SDS011;64845;53.086;5.834;2023-07-24T03:10:02;15.93;;;5.45;;
76113;SDS011;64845;53.086;5.834;2023-07-24T03:12:28;13.70;;;5.05;;
76113;SDS011;64845;53.086;5.834;2023-07-24T03:14:53;17.00;;;5.65;;
76113;SDS011;64845;53.086;5.834;2023-07-24T03:17:19;11.70;;;5.57;;
76113;SDS011;64845;53.086;5.834;2023-07-24T03:19:44;16.73;;;5.63;;
76113;SDS011;64845;53.086;5.834;2023-07-24T03:22:10;19.23;;;6.35;;
76113;SDS011;64845;53.086;5.834;2023-07-24T03:24:35;14.75;;;5.43;;
76113;SDS011;64845;53.086;5.834;2023-07-24T03:27:01;13.95;;;5.07;;
76113;SDS011;64845;53.086;5.834;2023-07-24T03:29:26;16.98;;;5.63;;
76113;SDS011;64845;53.086;5.834;2023-07-24T03:31:52;17.75;;;5.47;;
76113;SDS011;64845;53.086;5.834;2023-07-24T03:34:17;18.45;;;5.63;;
76113;SDS011;64845;53.086;5.834;2023-07-24T03:36:43;15.50;;;5.18;;
76113;SDS011;64845;53.086;5.834;2023-07-24T03:39:11;19.00;;;5.13;;
76113;SDS011;64845;53.086;5.834;2023-07-24T03:41:37;13.88;;;4.93;;
76113;SDS011;64845;53.086;5.834;2023-07-24T03:44:03;13.65;;;5.53;;
76113;SDS011;64845;53.086;5.834;2023-07-24T03:46:29;14.80;;;5.63;;
76113;SDS011;64845;53.086;5.834;2023-07-24T03:48:54;14.38;;;5.20;;
76113;SDS011;64845;53.086;5.834;2023-07-24T03:51:20;17.02;;;5.20;;
76113;SDS011;64845;53.086;5.834;2023-07-24T03:53:45;14.80;;;5.53;;
76113;SDS011;64845;53.086;5.834;2023-07-24T03:56:11;16.67;;;5.22;;
76113;SDS011;64845;53.086;5.834;2023-07-24T03:58:37;17.92;;;5.65;;
76113;SDS011;64845;53.086;5.834;2023-07-24T04:01:03;17.95;;;5.40;;
76113;SDS011;64845;53.086;5.834;2023-07-24T04:03:29;11.82;;;5.30;;
76113;SDS011;64845;53.086;5.834;2023-07-24T04:05:54;12.52;;;4.97;;
76113;SDS011;64845;53.086;5.834;2023-07-24T04:08:20;19.48;;;6.38;;
76113;SDS011;64845;53.086;5.834;2023-07-24T04:10:45;21.08;;;6.05;;
76113;SDS011;64845;53.086;5.834;2023-07-24T04:13:10;16.38;;;5.38;;
76113;SDS011;64845;53.086;5.834;2023-07-24T04:15:36;15.70;;;5.32;;
76113;SDS011;64845;53.086;5.834;2023-07-24T04:18:01;13.27;;;5.65;;
76113;SDS011;64845;53.086;5.834;2023-07-24T04:20:27;12.18;;;5.40;;
76113;SDS011;64845;53.086;5.834;2023-07-24T04:22:52;22.17;;;5.85;;
76113;SDS011;64845;53.086;5.834;2023-07-24T04:25:18;14.02;;;5.32;;
76113;SDS011;64845;53.086;5.834;2023-07-24T04:27:43;18.42;;;6.20;;
76113;SDS011;64845;53.086;5.834;2023-07-24T04:30:09;12.90;;;5.82;;
76113;SDS011;64845;53.086;5.834;2023-07-24T04:32:35;14.68;;;5.40;;
76113;SDS011;64845;53.086;5.834;2023-07-24T04:35:00;18.70;;;6.25;;
76113;SDS011;64845;53.086;5.834;2023-07-24T04:37:26;19.98;;;6.30;;
76113;SDS011;64845;53.086;5.834;2023-07-24T04:39:51;15.27;;;5.63;;
76113;SDS011;64845;53.086;5.834;2023-07-24T04:42:17;14.73;;;5.18;;
76113;SDS011;64845;53.086;5.834;2023-07-24T04:44:42;15.55;;;5.78;;
76113;SDS011;64845;53.086;5.834;2023-07-24T04:47:07;17.52;;;5.35;;
76113;SDS011;64845;53.086;5.834;2023-07-24T04:49:33;14.80;;;5.55;;
76113;SDS011;64845;53.086;5.834;2023-07-24T04:51:58;20.95;;;6.15;;
76113;SDS011;64845;53.086;5.834;2023-07-24T04:54:24;20.08;;;5.85;;
76113;SDS011;64845;53.086;5.834;2023-07-24T04:56:50;11.27;;;5.50;;
76113;SDS011;64845;53.086;5.834;2023-07-24T04:59:15;16.92;;;6.15;;
76113;SDS011;64845;53.086;5.834;2023-07-24T05:01:40;21.85;;;6.20;;
76113;SDS011;64845;53.086;5.834;2023-07-24T05:04:06;17.85;;;5.88;;
76113;SDS011;64845;53.086;5.834;2023-07-24T05:06:31;15.13;;;5.50;;
76113;SDS011;64845;53.086;5.834;2023-07-24T05:08:57;13.45;;;6.03;;
76113;SDS011;64845;53.086;5.834;2023-07-24T05:11:22;19.48;;;5.88;;
76113;SDS011;64845;53.086;5.834;2023-07-24T05:13:47;23.40;;;6.57;;
76113;SDS011;64845;53.086;5.834;2023-07-24T05:16:13;16.30;;;5.10;;
76113;SDS011;64845;53.086;5.834;2023-07-24T05:18:38;17.70;;;5.88;;
76113;SDS011;64845;53.086;5.834;2023-07-24T05:21:03;20.23;;;5.78;;
76113;SDS011;64845;53.086;5.834;2023-07-24T05:23:29;14.82;;;5.88;;
76113;SDS011;64845;53.086;5.834;2023-07-24T05:25:58;18.17;;;6.18;;
76113;SDS011;64845;53.086;5.834;2023-07-24T05:28:24;23.10;;;5.78;;
76113;SDS011;64845;53.086;5.834;2023-07-24T05:30:53;25.45;;;5.97;;
76113;SDS011;64845;53.086;5.834;2023-07-24T05:33:18;17.05;;;6.40;;
76113;SDS011;64845;53.086;5.834;2023-07-24T05:35:44;16.98;;;5.35;;
76113;SDS011;64845;53.086;5.834;2023-07-24T05:38:09;16.83;;;5.90;;
76113;SDS011;64845;53.086;5.834;2023-07-24T05:40:34;21.70;;;5.75;;
76113;SDS011;64845;53.086;5.834;2023-07-24T05:43:00;19.08;;;6.32;;
76113;SDS011;64845;53.086;5.834;2023-07-24T05:45:26;23.80;;;6.38;;
76113;SDS011;64845;53.086;5.834;2023-07-24T05:47:52;19.45;;;5.82;;
76113;SDS011;64845;53.086;5.834;2023-07-24T05:50:17;22.92;;;6.05;;
76113;SDS011;64845;53.086;5.834;2023-07-24T05:52:43;19.17;;;6.25;;
76113;SDS011;64845;53.086;5.834;2023-07-24T05:55:08;23.50;;;6.32;;
76113;SDS011;64845;53.086;5.834;2023-07-24T05:57:34;20.52;;;7.05;;
76113;SDS011;64845;53.086;5.834;2023-07-24T06:00:00;18.45;;;5.95;;
76113;SDS011;64845;53.086;5.834;2023-07-24T06:02:25;18.50;;;6.00;;
76113;SDS011;64845;53.086;5.834;2023-07-24T06:04:50;14.63;;;5.68;;
76113;SDS011;64845;53.086;5.834;2023-07-24T06:07:16;21.60;;;6.65;;
76113;SDS011;64845;53.086;5.834;2023-07-24T06:09:41;21.67;;;6.30;;
76113;SDS011;64845;53.086;5.834;2023-07-24T06:12:07;27.10;;;6.45;;
76113;SDS011;64845;53.086;5.834;2023-07-24T06:14:32;20.75;;;6.30;;
76113;SDS011;64845;53.086;5.834;2023-07-24T06:16:57;16.83;;;6.28;;
76113;SDS011;64845;53.086;5.834;2023-07-24T06:19:23;16.45;;;6.30;;
76113;SDS011;64845;53.086;5.834;2023-07-24T06:21:48;19.77;;;6.35;;
76113;SDS011;64845;53.086;5.834;2023-07-24T06:24:13;23.45;;;6.57;;
76113;SDS011;64845;53.086;5.834;2023-07-24T06:26:39;17.55;;;6.45;;
76113;SDS011;64845;53.086;5.834;2023-07-24T06:29:05;24.80;;;7.03;;
76113;SDS011;64845;53.086;5.834;2023-07-24T06:31:30;18.33;;;6.28;;
76113;SDS011;64845;53.086;5.834;2023-07-24T06:33:56;21.92;;;7.60;;
76113;SDS011;64845;53.086;5.834;2023-07-24T06:36:21;17.85;;;6.80;;
76113;SDS011;64845;53.086;5.834;2023-07-24T06:38:47;24.38;;;7.22;;
76113;SDS011;64845;53.086;5.834;2023-07-24T06:41:13;23.75;;;7.32;;
76113;SDS011;64845;53.086;5.834;2023-07-24T06:43:40;15.38;;;6.03;;
76113;SDS011;64845;53.086;5.834;2023-07-24T06:46:06;21.60;;;6.70;;
76113;SDS011;64845;53.086;5.834;2023-07-24T06:48:32;24.63;;;8.30;;
76113;SDS011;64845;53.086;5.834;2023-07-24T06:50:57;19.95;;;7.40;;
76113;SDS011;64845;53.086;5.834;2023-07-24T06:53:23;21.73;;;7.00;;
76113;SDS011;64845;53.086;5.834;2023-07-24T06:55:48;17.58;;;7.13;;
76113;SDS011;64845;53.086;5.834;2023-07-24T06:58:13;23.13;;;7.30;;
76113;SDS011;64845;53.086;5.834;2023-07-24T07:00:39;23.77;;;7.50;;
76113;SDS011;64845;53.086;5.834;2023-07-24T07:03:04;23.38;;;7.60;;
76113;SDS011;64845;53.086;5.834;2023-07-24T07:05:31;22.30;;;7.15;;
76113;SDS011;64845;53.086;5.834;2023-07-24T07:07:57;28.52;;;7.60;;
76113;SDS011;64845;53.086;5.834;2023-07-24T07:10:22;29.38;;;8.00;;
76113;SDS011;64845;53.086;5.834;2023-07-24T07:12:48;30.42;;;7.85;;
76113;SDS011;64845;53.086;5.834;2023-07-24T07:15:13;21.40;;;7.00;;
76113;SDS011;64845;53.086;5.834;2023-07-24T07:17:39;22.85;;;7.55;;
76113;SDS011;64845;53.086;5.834;2023-07-24T07:20:04;21.27;;;7.05;;
76113;SDS011;64845;53.086;5.834;2023-07-24T07:22:30;22.13;;;6.93;;
76113;SDS011;64845;53.086;5.834;2023-07-24T07:24:56;20.95;;;6.75;;
76113;SDS011;64845;53.086;5.834;2023-07-24T07:27:21;16.75;;;6.60;;
76113;SDS011;64845;53.086;5.834;2023-07-24T07:29:47;21.73;;;6.93;;
76113;SDS011;64845;53.086;5.834;2023-07-24T07:32:12;21.95;;;6.95;;
76113;SDS011;64845;53.086;5.834;2023-07-24T07:34:37;22.50;;;6.72;;
76113;SDS011;64845;53.086;5.834;2023-07-24T07:37:04;24.08;;;6.97;;
76113;SDS011;64845;53.086;5.834;2023-07-24T07:39:30;25.13;;;7.78;;
76113;SDS011;64845;53.086;5.834;2023-07-24T07:41:56;24.52;;;7.50;;
76113;SDS011;64845;53.086;5.834;2023-07-24T07:44:21;24.02;;;6.95;;
76113;SDS011;64845;53.086;5.834;2023-07-24T07:46:46;18.58;;;6.85;;
76113;SDS011;64845;53.086;5.834;2023-07-24T07:49:12;19.88;;;6.95;;
76113;SDS011;64845;53.086;5.834;2023-07-24T07:51:37;28.40;;;7.00;;
76113;SDS011;64845;53.086;5.834;2023-07-24T07:54:02;18.98;;;6.78;;
76113;SDS011;64845;53.086;5.834;2023-07-24T07:56:28;20.65;;;7.47;;
76113;SDS011;64845;53.086;5.834;2023-07-24T07:58:53;14.48;;;6.68;;
76113;SDS011;64845;53.086;5.834;2023-07-24T08:01:19;18.40;;;8.00;;
76113;SDS011;64845;53.086;5.834;2023-07-24T08:03:44;27.67;;;7.03;;
76113;SDS011;64845;53.086;5.834;2023-07-24T08:06:10;14.15;;;6.55;;
76113;SDS011;64845;53.086;5.834;2023-07-24T08:08:35;15.85;;;6.70;;
76113;SDS011;64845;53.086;5.834;2023-07-24T08:11:05;22.65;;;6.57;;
76113;SDS011;64845;53.086;5.834;2023-07-24T08:13:31;24.50;;;6.55;;
76113;SDS011;64845;53.086;5.834;2023-07-24T08:15:56;15.07;;;6.38;;
76113;SDS011;64845;53.086;5.834;2023-07-24T08:18:21;14.82;;;6.03;;
76113;SDS011;64845;53.086;5.834;2023-07-24T08:20:47;13.77;;;6.25;;
76113;SDS011;64845;53.086;5.834;2023-07-24T08:23:12;20.50;;;6.25;;
76113;SDS011;64845;53.086;5.834;2023-07-24T08:25:38;17.05;;;5.90;;
76113;SDS011;64845;53.086;5.834;2023-07-24T08:28:03;17.90;;;6.15;;
76113;SDS011;64845;53.086;5.834;2023-07-24T08:30:29;19.20;;;6.35;;
76113;SDS011;64845;53.086;5.834;2023-07-24T08:32:56;14.15;;;6.15;;
76113;SDS011;64845;53.086;5.834;2023-07-24T08:35:22;18.33;;;6.10;;
76113;SDS011;64845;53.086;5.834;2023-07-24T08:37:48;15.23;;;6.78;;
76113;SDS011;64845;53.086;5.834;2023-07-24T08:40:14;13.88;;;5.80;;
76113;SDS011;64845;53.086;5.834;2023-07-24T08:42:42;20.35;;;6.00;;
76113;SDS011;64845;53.086;5.834;2023-07-24T08:45:12;14.85;;;5.53;;
76113;SDS011;64845;53.086;5.834;2023-07-24T08:47:44;14.80;;;5.47;;
76113;SDS011;64845;53.086;5.834;2023-07-24T08:50:09;13.82;;;5.25;;
76113;SDS011;64845;53.086;5.834;2023-07-24T08:52:36;15.50;;;5.47;;
76113;SDS011;64845;53.086;5.834;2023-07-24T08:55:03;19.63;;;5.70;;
76113;SDS011;64845;53.086;5.834;2023-07-24T08:57:30;12.98;;;5.10;;
76113;SDS011;64845;53.086;5.834;2023-07-24T08:59:56;17.55;;;6.93;;
76113;SDS011;64845;53.086;5.834;2023-07-24T09:02:22;8.32;;;5.20;;
76113;SDS011;64845;53.086;5.834;2023-07-24T09:04:48;10.13;;;5.07;;
76113;SDS011;64845;53.086;5.834;2023-07-24T09:07:13;14.95;;;5.05;;
76113;SDS011;64845;53.086;5.834;2023-07-24T09:09:39;15.20;;;5.32;;
76113;SDS011;64845;53.086;5.834;2023-07-24T09:12:04;15.43;;;5.93;;
76113;SDS011;64845;53.086;5.834;2023-07-24T09:14:30;12.68;;;5.07;;
76113;SDS011;64845;53.086;5.834;2023-07-24T09:17:06;14.43;;;5.75;;
76113;SDS011;64845;53.086;5.834;2023-07-24T09:19:33;13.02;;;5.22;;
76113;SDS011;64845;53.086;5.834;2023-07-24T09:22:09;16.05;;;5.30;;
76113;SDS011;64845;53.086;5.834;2023-07-24T09:24:56;13.70;;;5.32;;
76113;SDS011;64845;53.086;5.834;2023-07-24T09:27:27;12.18;;;5.20;;
76113;SDS011;64845;53.086;5.834;2023-07-24T09:29:53;12.60;;;4.90;;
76113;SDS011;64845;53.086;5.834;2023-07-24T09:34:50;16.00;;;4.78;;
76113;SDS011;64845;53.086;5.834;2023-07-24T09:37:32;13.90;;;4.30;;
76113;SDS011;64845;53.086;5.834;2023-07-24T09:39:59;11.68;;;4.80;;
76113;SDS011;64845;53.086;5.834;2023-07-24T09:42:31;8.23;;;4.72;;
76113;SDS011;64845;53.086;5.834;2023-07-24T09:44:58;13.27;;;5.13;;
76113;SDS011;64845;53.086;5.834;2023-07-24T09:47:23;11.80;;;6.15;;
76113;SDS011;64845;53.086;5.834;2023-07-24T09:49:50;12.57;;;6.32;;
76113;SDS011;64845;53.086;5.834;2023-07-24T09:52:17;16.63;;;6.38;;
76113;SDS011;64845;53.086;5.834;2023-07-24T09:57:35;11.50;;;6.43;;
76113;SDS011;64845;53.086;5.834;2023-07-24T10:00:01;35.72;;;7.53;;
76113;SDS011;64845;53.086;5.834;2023-07-24T10:02:27;20.58;;;7.32;;
76113;SDS011;64845;53.086;5.834;2023-07-24T10:04:54;11.40;;;6.07;;
76113;SDS011;64845;53.086;5.834;2023-07-24T10:07:20;13.52;;;6.18;;
76113;SDS011;64845;53.086;5.834;2023-07-24T10:09:48;10.25;;;6.40;;
76113;SDS011;64845;53.086;5.834;2023-07-24T10:12:20;11.23;;;6.93;;
76113;SDS011;64845;53.086;5.834;2023-07-24T10:14:46;16.45;;;7.22;;
76113;SDS011;64845;53.086;5.834;2023-07-24T10:17:13;19.38;;;8.15;;
76113;SDS011;64845;53.086;5.834;2023-07-24T10:19:39;14.13;;;8.18;;
76113;SDS011;64845;53.086;5.834;2023-07-24T10:22:06;14.73;;;8.50;;
76113;SDS011;64845;53.086;5.834;2023-07-24T10:24:32;14.30;;;8.25;;
76113;SDS011;64845;53.086;5.834;2023-07-24T10:26:58;13.80;;;9.07;;
76113;SDS011;64845;53.086;5.834;2023-07-24T10:29:24;12.48;;;8.05;;
76113;SDS011;64845;53.086;5.834;2023-07-24T10:31:53;11.93;;;6.50;;
76113;SDS011;64845;53.086;5.834;2023-07-24T10:34:19;12.23;;;6.20;;
76113;SDS011;64845;53.086;5.834;2023-07-24T10:36:45;12.35;;;6.30;;
76113;SDS011;64845;53.086;5.834;2023-07-24T10:39:14;10.82;;;6.07;;
76113;SDS011;64845;53.086;5.834;2023-07-24T10:41:41;8.65;;;5.93;;
76113;SDS011;64845;53.086;5.834;2023-07-24T10:44:06;9.98;;;5.22;;
76113;SDS011;64845;53.086;5.834;2023-07-24T10:46:35;7.65;;;5.03;;
76113;SDS011;64845;53.086;5.834;2023-07-24T10:49:02;10.95;;;6.55;;
76113;SDS011;64845;53.086;5.834;2023-07-24T10:51:29;12.82;;;6.78;;
76113;SDS011;64845;53.086;5.834;2023-07-24T10:53:55;14.35;;;6.47;;
76113;SDS011;64845;53.086;5.834;2023-07-24T10:56:20;10.65;;;7.20;;
76113;SDS011;64845;53.086;5.834;2023-07-24T10:58:46;12.95;;;7.15;;
76113;SDS011;64845;53.086;5.834;2023-07-24T11:01:11;13.02;;;6.72;;
76113;SDS011;64845;53.086;5.834;2023-07-24T11:03:37;9.43;;;6.43;;
76113;SDS011;64845;53.086;5.834;2023-07-24T11:06:04;8.95;;;7.07;;
76113;SDS011;64845;53.086;5.834;2023-07-24T11:08:30;8.70;;;7.00;;
76113;SDS011;64845;53.086;5.834;2023-07-24T11:10:57;8.13;;;5.88;;
76113;SDS011;64845;53.086;5.834;2023-07-24T11:13:26;7.97;;;5.22;;
76113;SDS011;64845;53.086;5.834;2023-07-24T11:15:53;9.85;;;5.13;;
76113;SDS011;64845;53.086;5.834;2023-07-24T11:18:20;9.55;;;4.50;;
76113;SDS011;64845;53.086;5.834;2023-07-24T11:20:54;8.23;;;5.22;;
76113;SDS011;64845;53.086;5.834;2023-07-24T11:23:20;7.97;;;5.43;;
76113;SDS011;64845;53.086;5.834;2023-07-24T11:25:47;11.35;;;5.53;;
76113;SDS011;64845;53.086;5.834;2023-07-24T11:28:14;7.40;;;5.40;;
76113;SDS011;64845;53.086;5.834;2023-07-24T11:30:40;6.72;;;4.93;;
76113;SDS011;64845;53.086;5.834;2023-07-24T11:33:08;8.00;;;5.30;;
76113;SDS011;64845;53.086;5.834;2023-07-24T11:35:35;8.07;;;5.40;;
76113;SDS011;64845;53.086;5.834;2023-07-24T11:38:02;5.15;;;4.35;;
76113;SDS011;64845;53.086;5.834;2023-07-24T11:40:46;9.85;;;5.00;;
76113;SDS011;64845;53.086;5.834;2023-07-24T11:43:22;7.72;;;3.97;;
76113;SDS011;64845;53.086;5.834;2023-07-24T11:45:49;6.13;;;3.85;;
76113;SDS011;64845;53.086;5.834;2023-07-24T11:48:19;6.45;;;3.10;;
76113;SDS011;64845;53.086;5.834;2023-07-24T11:50:46;4.53;;;3.20;;
76113;SDS011;64845;53.086;5.834;2023-07-24T11:53:34;7.03;;;2.80;;
76113;SDS011;64845;53.086;5.834;2023-07-24T11:55:59;5.93;;;2.95;;
76113;SDS011;64845;53.086;5.834;2023-07-24T11:58:26;3.42;;;2.53;;
76113;SDS011;64845;53.086;5.834;2023-07-24T12:00:53;3.15;;;2.80;;
76113;SDS011;64845;53.086;5.834;2023-07-24T12:03:20;7.80;;;2.60;;
76113;SDS011;64845;53.086;5.834;2023-07-24T12:05:46;3.65;;;2.25;;
76113;SDS011;64845;53.086;5.834;2023-07-24T12:08:12;4.63;;;2.55;;
76113;SDS011;64845;53.086;5.834;2023-07-24T12:10:39;3.85;;;2.30;;
76113;SDS011;64845;53.086;5.834;2023-07-24T12:13:05;2.40;;;2.00;;
76113;SDS011;64845;53.086;5.834;2023-07-24T12:15:31;5.05;;;1.60;;
76113;SDS011;64845;53.086;5.834;2023-07-24T12:18:00;2.38;;;1.60;;
76113;SDS011;64845;53.086;5.834;2023-07-24T12:20:30;1.83;;;1.30;;
76113;SDS011;64845;53.086;5.834;2023-07-24T12:22:56;2.72;;;1.40;;
76113;SDS011;64845;53.086;5.834;2023-07-24T12:25:22;5.13;;;1.88;;
76113;SDS011;64845;53.086;5.834;2023-07-24T12:27:48;2.30;;;1.13;;
76113;SDS011;64845;53.086;5.834;2023-07-24T12:30:14;2.53;;;1.20;;
76113;SDS011;64845;53.086;5.834;2023-07-24T12:32:40;2.40;;;1.17;;
76113;SDS011;64845;53.086;5.834;2023-07-24T12:35:06;1.88;;;1.30;;
76113;SDS011;64845;53.086;5.834;2023-07-24T12:37:33;2.00;;;1.52;;
76113;SDS011;64845;53.086;5.834;2023-07-24T12:39:58;4.70;;;1.50;;
76113;SDS011;64845;53.086;5.834;2023-07-24T12:42:23;3.00;;;1.40;;
76113;SDS011;64845;53.086;5.834;2023-07-24T12:44:49;2.90;;;1.50;;
76113;SDS011;64845;53.086;5.834;2023-07-24T12:47:14;3.38;;;1.33;;
76113;SDS011;64845;53.086;5.834;2023-07-24T12:49:40;7.85;;;1.60;;
76113;SDS011;64845;53.086;5.834;2023-07-24T12:52:06;7.10;;;1.60;;
76113;SDS011;64845;53.086;5.834;2023-07-24T12:54:32;4.70;;;1.50;;
76113;SDS011;64845;53.086;5.834;2023-07-24T12:56:58;4.63;;;1.60;;
76113;SDS011;64845;53.086;5.834;2023-07-24T12:59:23;6.80;;;1.90;;
76113;SDS011;64845;53.086;5.834;2023-07-24T13:01:49;3.20;;;1.60;;
76113;SDS011;64845;53.086;5.834;2023-07-24T13:04:14;6.38;;;1.88;;
76113;SDS011;64845;53.086;5.834;2023-07-24T13:06:40;6.20;;;1.80;;
76113;SDS011;64845;53.086;5.834;2023-07-24T13:09:05;4.60;;;1.50;;
76113;SDS011;64845;53.086;5.834;2023-07-24T13:11:30;5.70;;;1.40;;
76113;SDS011;64845;53.086;5.834;2023-07-24T13:13:56;3.22;;;1.30;;
76113;SDS011;64845;53.086;5.834;2023-07-24T13:16:22;5.07;;;1.65;;
76113;SDS011;64845;53.086;5.834;2023-07-24T13:18:48;12.75;;;1.85;;
76113;SDS011;64845;53.086;5.834;2023-07-24T13:21:14;5.53;;;1.92;;
76113;SDS011;64845;53.086;5.834;2023-07-24T13:23:42;5.43;;;1.70;;
76113;SDS011;64845;53.086;5.834;2023-07-24T13:26:08;7.32;;;1.80;;
76113;SDS011;64845;53.086;5.834;2023-07-24T13:28:35;10.98;;;2.15;;
76113;SDS011;64845;53.086;5.834;2023-07-24T13:31:13;8.25;;;1.85;;
76113;SDS011;64845;53.086;5.834;2023-07-24T13:33:40;6.72;;;1.77;;
76113;SDS011;64845;53.086;5.834;2023-07-24T13:36:05;4.57;;;1.55;;
76113;SDS011;64845;53.086;5.834;2023-07-24T13:38:31;7.78;;;1.77;;
76113;SDS011;64845;53.086;5.834;2023-07-24T13:40:57;8.85;;;1.63;;
76113;SDS011;64845;53.086;5.834;2023-07-24T13:43:23;3.75;;;1.40;;
76113;SDS011;64845;53.086;5.834;2023-07-24T13:45:48;6.80;;;1.58;;
76113;SDS011;64845;53.086;5.834;2023-07-24T13:48:13;6.82;;;1.75;;
76113;SDS011;64845;53.086;5.834;2023-07-24T13:50:39;7.22;;;1.55;;
76113;SDS011;64845;53.086;5.834;2023-07-24T13:53:04;8.27;;;1.75;;
76113;SDS011;64845;53.086;5.834;2023-07-24T13:55:30;9.43;;;1.67;;
76113;SDS011;64845;53.086;5.834;2023-07-24T13:57:55;4.65;;;1.40;;
76113;SDS011;64845;53.086;5.834;2023-07-24T14:00:20;5.50;;;1.30;;
76113;SDS011;64845;53.086;5.834;2023-07-24T14:02:46;5.13;;;1.35;;
76113;SDS011;64845;53.086;5.834;2023-07-24T14:05:11;3.03;;;1.17;;
76113;SDS011;64845;53.086;5.834;2023-07-24T14:07:37;5.47;;;1.58;;
76113;SDS011;64845;53.086;5.834;2023-07-24T14:10:02;5.13;;;1.70;;
76113;SDS011;64845;53.086;5.834;2023-07-24T14:12:28;6.72;;;1.73;;
76113;SDS011;64845;53.086;5.834;2023-07-24T14:14:53;5.60;;;1.60;;
76113;SDS011;64845;53.086;5.834;2023-07-24T14:17:18;10.35;;;1.60;;
76113;SDS011;64845;53.086;5.834;2023-07-24T14:19:44;4.53;;;1.60;;
76113;SDS011;64845;53.086;5.834;2023-07-24T14:22:10;3.35;;;1.50;;
76113;SDS011;64845;53.086;5.834;2023-07-24T14:24:35;7.93;;;1.60;;
76113;SDS011;64845;53.086;5.834;2023-07-24T14:27:00;5.85;;;1.35;;
76113;SDS011;64845;53.086;5.834;2023-07-24T14:29:26;7.68;;;1.67;;
76113;SDS011;64845;53.086;5.834;2023-07-24T14:31:51;3.95;;;1.27;;
76113;SDS011;64845;53.086;5.834;2023-07-24T14:34:17;7.82;;;1.70;;
76113;SDS011;64845;53.086;5.834;2023-07-24T14:36:42;4.43;;;1.55;;
76113;SDS011;64845;53.086;5.834;2023-07-24T14:39:07;3.20;;;1.42;;
76113;SDS011;64845;53.086;5.834;2023-07-24T14:41:33;7.63;;;1.58;;
76113;SDS011;64845;53.086;5.834;2023-07-24T14:43:59;7.25;;;2.00;;